首页
METAR-TAF:

METAR-TAF

机场 :

坎伯蘭, 马里兰州, 美国

纬度: 39-36-56N, 经度: 078-45-39W, 海拔: 236米

当前天气观测

该预报发布于25分钟前的02:20 UTC
静风
温度 23°C
湿度 78%
气压 1021 hPa
能見度: 16.1公里
天空无云

METAR: KCBE 270220Z AUTO 00000KT 10SM CLR 23/19 A3015 RMK AO2 T02270186

时间: 22:45 (02:45 UTC)


TAF: 丢失

超过4000个机场的气象观测和天气预报(METAR&TAF报告)。

可查询的气象台以黄色和红色小点在地图上表示。

将鼠标移到小点上方,可查看气象台名称。

然后点击查看天气观测和预报。

如需切换地图:点击带黑十字的绿色按钮放大地图;点击带横线的绿色按钮缩小地图;或者点击绿色箭头查看邻近地区的地图。


METAR-TAF: